createdAt,value
2022-11-19T00:01:34.287Z,4.50
2022-11-19T00:04:02.092Z,6.63
2022-11-19T00:06:29.887Z,6.57
2022-11-19T00:08:57.684Z,6.27
2022-11-19T00:11:45.612Z,5.40
2022-11-19T00:14:15.430Z,6.83
2022-11-19T00:16:45.284Z,6.77
2022-11-19T00:19:14.466Z,5.77
2022-11-19T00:21:42.248Z,6.67
2022-11-19T00:24:10.353Z,7.33
2022-11-19T00:26:39.488Z,6.40
2022-11-19T00:29:07.294Z,7.33
2022-11-19T00:31:35.052Z,7.37
2022-11-19T00:34:02.999Z,7.07
2022-11-19T00:36:30.957Z,7.70
2022-11-19T00:38:58.747Z,8.10
2022-11-19T00:41:26.517Z,6.30
2022-11-19T00:43:55.693Z,9.17
2022-11-19T00:46:25.839Z,6.13
2022-11-19T00:48:56.209Z,7.00
2022-11-19T00:51:25.810Z,6.90
2022-11-19T00:53:53.645Z,9.37
2022-11-19T00:56:23.403Z,6.90
2022-11-19T00:58:51.907Z,5.17
2022-11-19T01:01:23.234Z,4.97
2022-11-19T01:03:51.263Z,5.27
2022-11-19T01:06:22.563Z,3.87
2022-11-19T01:08:51.948Z,5.40
2022-11-19T01:11:23.320Z,6.80
2022-11-19T01:13:51.348Z,6.07
2022-11-19T01:16:22.604Z,6.30
2022-11-19T01:18:51.230Z,5.37
2022-11-19T01:21:20.145Z,5.97
2022-11-19T01:23:48.643Z,7.23
2022-11-19T01:26:17.600Z,7.87
2022-11-19T01:28:46.115Z,6.77
2022-11-19T01:31:16.003Z,6.03
2022-11-19T01:33:45.507Z,6.30
2022-11-19T01:36:16.261Z,6.87
2022-11-19T01:38:50.383Z,6.67
2022-11-19T01:41:18.590Z,6.83
2022-11-19T01:43:47.918Z,7.33
2022-11-19T01:46:17.799Z,7.10
2022-11-19T01:48:50.583Z,6.37
2022-11-19T01:51:22.549Z,7.73
2022-11-19T01:53:52.308Z,6.43
2022-11-19T01:56:21.950Z,6.97
2022-11-19T01:58:53.397Z,6.73
2022-11-19T02:01:22.986Z,5.00
2022-11-19T02:03:53.521Z,6.13
2022-11-19T02:06:21.582Z,6.83
2022-11-19T02:08:51.480Z,6.50
2022-11-19T02:11:43.880Z,6.97
2022-11-19T02:14:33.874Z,5.67
2022-11-19T02:17:10.651Z,6.00
2022-11-19T02:20:06.746Z,5.33
2022-11-19T02:22:58.032Z,5.83
2022-11-19T02:25:37.508Z,4.73
2022-11-19T02:28:27.176Z,6.23
2022-11-19T02:31:03.597Z,6.90
2022-11-19T02:33:38.224Z,7.53
2022-11-19T02:36:12.275Z,6.60
2022-11-19T02:38:45.675Z,6.77
2022-11-19T02:41:37.245Z,6.13
2022-11-19T02:44:32.110Z,7.73
2022-11-19T02:47:05.094Z,6.57
2022-11-19T02:49:34.788Z,7.53
2022-11-19T02:52:04.224Z,7.17
2022-11-19T02:54:32.083Z,6.97
2022-11-19T02:56:59.985Z,7.63
2022-11-19T02:59:53.140Z,6.83
2022-11-19T03:02:41.243Z,6.37
2022-11-19T03:05:14.128Z,5.97
2022-11-19T03:07:42.083Z,5.70
2022-11-19T03:10:12.804Z,5.67
2022-11-19T03:12:47.107Z,6.27
2022-11-19T03:15:43.620Z,7.63
2022-11-19T03:18:17.160Z,6.67
2022-11-19T03:20:50.995Z,6.20
2022-11-19T03:23:23.557Z,5.27
2022-11-19T03:25:55.213Z,5.27
2022-11-19T03:28:26.548Z,5.20
2022-11-19T03:30:56.866Z,5.53
2022-11-19T03:33:30.876Z,6.30
2022-11-19T03:36:02.976Z,5.77
2022-11-19T03:38:34.049Z,5.23
2022-11-19T03:41:04.663Z,4.43
2022-11-19T03:43:37.511Z,5.13
2022-11-19T03:46:08.468Z,4.63
2022-11-19T03:48:38.987Z,4.03
2022-11-19T03:51:13.374Z,4.63
2022-11-19T03:53:41.320Z,4.30
2022-11-19T03:56:11.554Z,5.07
2022-11-19T03:58:40.591Z,4.07
2022-11-19T04:01:08.952Z,3.80
2022-11-19T04:03:38.307Z,2.97
2022-11-19T04:06:06.356Z,4.23
2022-11-19T04:08:34.260Z,3.43
2022-11-19T04:13:28.984Z,4.80
2022-11-19T04:15:56.851Z,3.80
2022-11-19T04:18:24.719Z,4.33
2022-11-19T04:20:53.945Z,4.40
2022-11-19T04:23:21.859Z,4.33
2022-11-19T04:25:49.705Z,5.83
2022-11-19T04:28:17.549Z,3.80
2022-11-19T04:30:45.417Z,3.83
2022-11-19T04:33:13.504Z,3.60
2022-11-19T04:35:41.382Z,3.07
2022-11-19T04:38:10.626Z,4.27
2022-11-19T04:40:39.073Z,5.23
2022-11-19T04:43:06.978Z,3.70
2022-11-19T04:45:34.862Z,4.60
2022-11-19T04:48:02.749Z,5.07
2022-11-19T04:50:30.628Z,4.67
2022-11-19T04:52:59.996Z,4.63
2022-11-19T04:55:29.257Z,5.30
2022-11-19T04:57:57.127Z,5.03
2022-11-19T05:00:25.188Z,5.43
2022-11-19T05:02:53.104Z,5.63
2022-11-19T05:05:20.993Z,5.43
2022-11-19T05:07:48.868Z,4.67
2022-11-19T05:10:16.822Z,6.87
2022-11-19T05:12:46.064Z,5.27
2022-11-19T05:15:14.061Z,5.60
2022-11-19T05:17:41.967Z,5.37
2022-11-19T05:20:10.674Z,5.13
2022-11-19T05:22:38.552Z,5.80
2022-11-19T05:25:07.176Z,6.00
2022-11-19T05:27:35.289Z,6.87
2022-11-19T05:30:05.430Z,6.53
2022-11-19T05:32:33.322Z,8.63
2022-11-19T05:35:01.182Z,7.20
2022-11-19T05:37:29.080Z,7.53
2022-11-19T05:39:57.011Z,9.50
2022-11-19T05:42:24.916Z,8.67
2022-11-19T05:44:52.792Z,7.50
2022-11-19T05:47:21.995Z,10.30
2022-11-19T05:49:49.892Z,10.43
2022-11-19T05:52:17.772Z,9.50
2022-11-19T05:54:45.624Z,7.30
2022-11-19T05:57:13.482Z,8.87
2022-11-19T05:59:44.025Z,10.00
2022-11-19T06:02:12.196Z,8.07
2022-11-19T06:04:41.412Z,9.03
2022-11-19T06:07:09.370Z,8.23
2022-11-19T06:09:37.242Z,8.93
2022-11-19T06:12:05.578Z,8.57
2022-11-19T06:14:33.452Z,11.13
2022-11-19T06:17:01.716Z,11.33
2022-11-19T06:19:29.612Z,11.70
2022-11-19T06:21:58.923Z,10.87
2022-11-19T06:24:27.091Z,12.07
2022-11-19T06:26:54.945Z,13.03
2022-11-19T06:29:22.929Z,12.10
2022-11-19T06:31:50.880Z,12.90
2022-11-19T06:34:18.753Z,12.93
2022-11-19T06:36:50.493Z,10.60
2022-11-19T06:39:20.936Z,10.97
2022-11-19T06:41:49.413Z,11.13
2022-11-19T06:44:17.325Z,9.47
2022-11-19T06:46:45.182Z,10.80
2022-11-19T06:49:18.359Z,11.07
2022-11-19T06:51:47.702Z,10.97
2022-11-19T06:54:15.665Z,10.57
2022-11-19T06:56:44.876Z,10.40
2022-11-19T06:59:12.762Z,11.40
2022-11-19T07:01:40.663Z,12.53
2022-11-19T07:04:08.560Z,12.17
2022-11-19T07:06:36.446Z,10.77
2022-11-19T07:09:04.320Z,11.87
2022-11-19T07:11:32.308Z,12.67
2022-11-19T07:14:03.446Z,12.67
2022-11-19T07:16:33.262Z,13.10
2022-11-19T07:19:02.792Z,10.63
2022-11-19T07:21:31.736Z,11.63
2022-11-19T07:24:01.437Z,10.53
2022-11-19T07:26:29.300Z,10.77
2022-11-19T07:29:01.753Z,13.73
2022-11-19T07:31:34.088Z,9.80
2022-11-19T07:34:02.654Z,11.23
2022-11-19T07:36:30.530Z,13.90
2022-11-19T07:38:59.000Z,12.77
2022-11-19T07:41:44.339Z,11.37
2022-11-19T07:44:12.207Z,14.23
2022-11-19T07:46:41.440Z,13.60
2022-11-19T07:49:09.388Z,14.40
2022-11-19T07:51:37.322Z,12.67
2022-11-19T07:54:05.619Z,12.47
2022-11-19T07:56:33.574Z,12.23
2022-11-19T07:59:01.856Z,12.63
2022-11-19T08:01:29.864Z,13.77
2022-11-19T08:03:59.194Z,11.47
2022-11-19T08:06:29.747Z,12.23
2022-11-19T08:08:57.950Z,11.33
2022-11-19T08:11:26.081Z,12.00
2022-11-19T08:13:54.071Z,12.20
2022-11-19T08:16:36.308Z,11.07
2022-11-19T08:19:08.108Z,11.10
2022-11-19T08:21:36.225Z,13.03
2022-11-19T08:24:04.664Z,11.50
2022-11-19T08:26:32.558Z,13.53
2022-11-19T08:29:00.476Z,13.43
2022-11-19T08:31:28.526Z,13.00
2022-11-19T08:33:56.719Z,13.30
2022-11-19T08:36:25.977Z,12.50
2022-11-19T08:38:53.880Z,13.37
2022-11-19T08:41:39.139Z,12.17
2022-11-19T08:44:07.101Z,13.50
2022-11-19T08:46:34.984Z,11.87
2022-11-19T08:49:02.843Z,12.83
2022-11-19T08:51:32.109Z,12.73
2022-11-19T08:54:00.244Z,13.93
2022-11-19T08:56:28.412Z,10.13
2022-11-19T08:59:01.313Z,12.60
2022-11-19T09:01:30.584Z,14.50
2022-11-19T09:03:58.579Z,13.70
2022-11-19T09:06:26.817Z,12.33
2022-11-19T09:08:56.051Z,12.33
2022-11-19T09:11:24.316Z,11.27
2022-11-19T09:13:52.483Z,12.83
2022-11-19T09:16:20.377Z,14.27
2022-11-19T09:18:48.272Z,15.60
2022-11-19T09:21:16.237Z,13.13
2022-11-19T09:23:44.164Z,14.70
2022-11-19T09:26:15.321Z,13.53
2022-11-19T09:28:44.172Z,14.03
2022-11-19T09:31:14.392Z,13.80
2022-11-19T09:33:44.360Z,13.33
2022-11-19T09:36:13.834Z,13.13
2022-11-19T09:38:42.000Z,14.63
2022-11-19T09:41:30.257Z,14.47
2022-11-19T09:44:08.022Z,13.23
2022-11-19T09:46:45.586Z,11.73
2022-11-19T09:49:18.451Z,14.13
2022-11-19T09:51:54.020Z,11.73
2022-11-19T09:54:23.450Z,13.33
2022-11-19T09:56:59.208Z,11.10
2022-11-19T09:59:36.448Z,11.90
2022-11-19T10:02:13.877Z,12.10
2022-11-19T10:04:41.866Z,13.50
2022-11-19T10:07:18.988Z,11.83
2022-11-19T10:10:01.561Z,14.37
2022-11-19T10:13:11.863Z,13.87
2022-11-19T10:15:51.427Z,13.77
2022-11-19T10:18:25.576Z,13.60
2022-11-19T10:20:59.805Z,13.23
2022-11-19T10:23:36.896Z,12.27
2022-11-19T10:26:10.538Z,10.40
2022-11-19T10:28:42.876Z,12.53
2022-11-19T10:31:17.011Z,12.93
2022-11-19T10:33:51.252Z,10.20
2022-11-19T10:36:24.804Z,12.60
2022-11-19T10:38:58.171Z,13.93
2022-11-19T10:41:35.008Z,10.83
2022-11-19T10:44:37.111Z,10.20
2022-11-19T10:47:06.532Z,12.10
2022-11-19T10:49:39.469Z,10.40
2022-11-19T10:52:10.408Z,11.97
2022-11-19T10:54:39.540Z,13.17
2022-11-19T10:57:14.152Z,10.90
2022-11-19T10:59:44.138Z,11.30
2022-11-19T11:02:27.840Z,10.83
2022-11-19T11:05:09.591Z,11.23
2022-11-19T11:07:51.068Z,11.43
2022-11-19T11:10:46.252Z,12.77
2022-11-19T11:13:46.691Z,12.63
2022-11-19T11:16:18.979Z,10.77
2022-11-19T11:18:47.697Z,12.63
2022-11-19T11:21:34.501Z,12.50
2022-11-19T11:24:05.420Z,10.93
2022-11-19T11:26:35.104Z,9.90
2022-11-19T11:29:05.368Z,12.87
2022-11-19T11:31:37.264Z,10.87
2022-11-19T11:34:07.022Z,10.40
2022-11-19T11:36:38.911Z,9.50
2022-11-19T11:39:07.180Z,11.67
2022-11-19T11:42:05.435Z,13.07
2022-11-19T11:44:28.579Z,11.83
2022-11-19T11:47:00.143Z,9.83
2022-11-19T11:49:31.787Z,12.63
2022-11-19T11:52:06.799Z,11.47
2022-11-19T11:54:34.847Z,11.77
2022-11-19T11:57:19.804Z,11.43
2022-11-19T11:59:47.920Z,12.40
2022-11-19T12:02:30.417Z,10.97
2022-11-19T12:05:01.932Z,10.50
2022-11-19T12:07:50.546Z,10.27
2022-11-19T12:10:29.800Z,12.23
2022-11-19T12:13:15.545Z,11.27
2022-11-19T12:15:55.336Z,13.40
2022-11-19T12:18:35.737Z,9.63
2022-11-19T12:21:11.966Z,10.20
2022-11-19T12:23:54.632Z,10.67
2022-11-19T12:26:31.671Z,10.37
2022-11-19T12:29:17.831Z,12.20
2022-11-19T12:31:59.259Z,11.93
2022-11-19T12:35:01.791Z,10.20
2022-11-19T12:37:43.489Z,9.70
2022-11-19T12:40:24.192Z,8.53
2022-11-19T12:43:04.149Z,10.57
2022-11-19T12:45:40.423Z,10.40
2022-11-19T12:48:32.517Z,12.87
2022-11-19T12:51:12.032Z,11.80
2022-11-19T12:54:08.229Z,9.20
2022-11-19T12:56:47.687Z,10.57
2022-11-19T12:59:31.103Z,11.87
2022-11-19T13:02:03.864Z,10.30
2022-11-19T13:04:40.421Z,10.60
2022-11-19T13:07:15.324Z,10.70
2022-11-19T13:09:47.502Z,10.53
2022-11-19T13:12:18.224Z,11.17
2022-11-19T13:14:54.598Z,12.70
2022-11-19T13:17:26.105Z,10.10
2022-11-19T13:19:58.972Z,12.13
2022-11-19T13:22:33.429Z,11.50
2022-11-19T13:25:06.431Z,14.50
2022-11-19T13:27:34.396Z,11.70
2022-11-19T13:30:04.838Z,11.20
2022-11-19T13:32:39.611Z,11.13
2022-11-19T13:35:17.381Z,12.17
2022-11-19T13:37:58.521Z,12.83
2022-11-19T13:40:30.507Z,9.77
2022-11-19T13:43:31.475Z,12.17
2022-11-19T13:46:07.835Z,12.10
2022-11-19T13:48:41.705Z,10.73
2022-11-19T13:51:20.736Z,10.03
2022-11-19T13:53:50.291Z,11.30
2022-11-19T13:56:18.645Z,9.60
2022-11-19T13:58:49.029Z,10.47
2022-11-19T14:01:45.448Z,10.67
2022-11-19T14:04:27.755Z,10.73
2022-11-19T14:07:13.357Z,11.37
2022-11-19T14:09:50.805Z,10.23
2022-11-19T14:12:50.697Z,10.60
2022-11-19T14:15:45.240Z,9.77
2022-11-19T14:18:42.349Z,10.50
2022-11-19T14:22:10.212Z,9.97
2022-11-19T14:25:17.041Z,8.10
2022-11-19T14:27:45.737Z,9.53
2022-11-19T14:30:19.259Z,9.77
2022-11-19T14:32:50.112Z,8.50
2022-11-19T14:35:42.190Z,8.20
2022-11-19T14:38:38.963Z,7.90
2022-11-19T14:41:36.079Z,8.57
2022-11-19T14:44:10.636Z,7.17
2022-11-19T14:46:41.436Z,6.83
2022-11-19T14:49:25.467Z,7.03
2022-11-19T14:51:56.226Z,7.60
2022-11-19T14:54:32.441Z,7.73
2022-11-19T14:57:05.775Z,9.43
2022-11-19T14:59:37.639Z,10.07
2022-11-19T15:02:17.022Z,8.67
2022-11-19T15:04:53.176Z,8.13
2022-11-19T15:07:35.355Z,9.57
2022-11-19T15:10:10.941Z,7.57
2022-11-19T15:12:50.412Z,7.90
2022-11-19T15:15:41.840Z,8.47
2022-11-19T15:18:25.787Z,7.97
2022-11-19T15:21:09.700Z,9.67
2022-11-19T15:23:46.837Z,7.53
2022-11-19T15:26:22.837Z,7.97
2022-11-19T15:29:06.937Z,7.87
2022-11-19T15:32:00.552Z,8.53
2022-11-19T15:35:10.151Z,8.33
2022-11-19T15:37:46.813Z,8.07
2022-11-19T15:40:19.276Z,7.10
2022-11-19T15:42:54.051Z,6.50
2022-11-19T15:45:25.291Z,7.10
2022-11-19T15:47:58.477Z,7.50
2022-11-19T15:50:28.971Z,7.63
2022-11-19T15:53:01.323Z,7.37
2022-11-19T15:55:31.798Z,5.80
2022-11-19T15:58:03.763Z,9.03
2022-11-19T16:00:44.293Z,9.77
2022-11-19T16:03:12.788Z,7.00
2022-11-19T16:05:44.076Z,8.87
2022-11-19T16:08:15.127Z,7.97
2022-11-19T16:10:47.265Z,6.03
2022-11-19T16:13:40.563Z,8.20
2022-11-19T16:16:39.375Z,7.30
2022-11-19T16:19:07.303Z,8.20
2022-11-19T16:21:38.932Z,8.30
2022-11-19T16:24:31.769Z,9.00
2022-11-19T16:27:01.988Z,8.40
2022-11-19T16:29:30.665Z,9.77
2022-11-19T16:32:00.523Z,8.67
2022-11-19T16:34:32.173Z,9.00
2022-11-19T16:37:00.404Z,8.37
2022-11-19T16:39:30.662Z,10.43
2022-11-19T16:42:18.166Z,8.40
2022-11-19T16:44:48.032Z,9.40
2022-11-19T16:47:22.776Z,8.83
2022-11-19T16:50:02.855Z,9.07
2022-11-19T16:52:41.248Z,6.73
2022-11-19T16:55:40.299Z,6.37
2022-11-19T16:58:17.190Z,6.80
2022-11-19T17:00:48.741Z,6.97
2022-11-19T17:03:36.939Z,7.33
2022-11-19T17:06:05.996Z,7.73
2022-11-19T17:08:36.357Z,9.57
2022-11-19T17:11:36.463Z,9.50
2022-11-19T17:14:21.024Z,9.00
2022-11-19T17:16:49.983Z,8.47
2022-11-19T17:19:27.501Z,8.10
2022-11-19T17:22:02.258Z,9.33
2022-11-19T17:24:33.147Z,8.87
2022-11-19T17:27:01.194Z,8.27
2022-11-19T17:29:29.069Z,8.83
2022-11-19T17:31:57.521Z,8.27
2022-11-19T17:34:32.033Z,8.17
2022-11-19T17:37:00.157Z,9.47
2022-11-19T17:39:28.052Z,7.13
2022-11-19T17:42:14.602Z,9.57
2022-11-19T17:44:42.894Z,8.03
2022-11-19T17:47:21.647Z,9.83
2022-11-19T17:49:52.138Z,9.30
2022-11-19T17:52:23.268Z,8.07
2022-11-19T17:54:51.491Z,9.57
2022-11-19T17:57:19.395Z,9.80
2022-11-19T17:59:47.624Z,8.20
2022-11-19T18:02:16.959Z,10.47
2022-11-19T18:04:45.732Z,8.67
2022-11-19T18:07:15.553Z,10.60
2022-11-19T18:09:43.670Z,9.97
2022-11-19T18:12:15.427Z,8.63
2022-11-19T18:14:43.643Z,10.33
2022-11-19T18:17:12.524Z,8.40
2022-11-19T18:19:40.373Z,9.20
2022-11-19T18:22:12.897Z,10.17
2022-11-19T18:24:42.148Z,9.80
2022-11-19T18:27:10.020Z,10.50
2022-11-19T18:29:38.065Z,11.20
2022-11-19T18:32:06.379Z,12.50
2022-11-19T18:34:35.136Z,11.00
2022-11-19T18:37:03.036Z,9.67
2022-11-19T18:39:30.875Z,9.90
2022-11-19T18:42:00.110Z,9.93
2022-11-19T18:44:37.396Z,12.00
2022-11-19T18:47:07.083Z,12.60
2022-11-19T18:49:35.493Z,12.43
2022-11-19T18:52:04.378Z,10.87
2022-11-19T18:54:32.614Z,12.07
2022-11-19T18:57:04.455Z,11.50
2022-11-19T18:59:32.752Z,10.37
2022-11-19T19:02:00.634Z,13.40
2022-11-19T19:04:28.653Z,10.80
2022-11-19T19:06:56.724Z,12.17
2022-11-19T19:09:24.961Z,11.33
2022-11-19T19:12:13.396Z,13.67
2022-11-19T19:14:43.867Z,11.80
2022-11-19T19:17:12.340Z,11.30
2022-11-19T19:19:40.277Z,14.13
2022-11-19T19:22:08.662Z,11.87
2022-11-19T19:24:36.681Z,13.33
2022-11-19T19:27:05.312Z,11.70
2022-11-19T19:29:33.224Z,11.77
2022-11-19T19:32:02.700Z,12.70
2022-11-19T19:34:30.948Z,13.70
2022-11-19T19:36:58.860Z,13.63
2022-11-19T19:39:26.886Z,11.87
2022-11-19T19:41:54.879Z,12.40
2022-11-19T19:44:22.768Z,13.40
2022-11-19T19:46:50.717Z,14.37
2022-11-19T19:49:20.452Z,11.50
2022-11-19T19:51:48.695Z,11.77
2022-11-19T19:54:16.816Z,13.97
2022-11-19T19:56:44.720Z,13.53
2022-11-19T19:59:14.057Z,12.13
2022-11-19T20:01:47.230Z,12.43
2022-11-19T20:04:15.222Z,12.70
2022-11-19T20:06:47.374Z,13.80
2022-11-19T20:09:15.478Z,14.40
2022-11-19T20:11:43.357Z,11.63
2022-11-19T20:14:11.453Z,13.87
2022-11-19T20:16:41.741Z,14.37
2022-11-19T20:19:13.081Z,12.50
2022-11-19T20:21:41.113Z,10.60
2022-11-19T20:24:12.861Z,15.03
2022-11-19T20:26:42.024Z,13.50
2022-11-19T20:29:12.956Z,11.67
2022-11-19T20:31:41.557Z,13.47
2022-11-19T20:34:11.907Z,14.10
2022-11-19T20:36:39.863Z,12.70
2022-11-19T20:39:07.969Z,12.10
2022-11-19T20:41:55.246Z,10.83
2022-11-19T20:44:23.467Z,14.43
2022-11-19T20:46:53.350Z,11.87
2022-11-19T20:49:23.469Z,11.40
2022-11-19T20:51:52.483Z,12.73
2022-11-19T20:54:21.327Z,9.63
2022-11-19T20:56:51.704Z,12.30
2022-11-19T20:59:20.538Z,12.23
2022-11-19T21:01:49.378Z,10.57
2022-11-19T21:04:17.589Z,11.87
2022-11-19T21:06:45.641Z,13.93
2022-11-19T21:09:14.807Z,10.30
2022-11-19T21:11:42.695Z,13.40
2022-11-19T21:14:11.928Z,10.10
2022-11-19T21:16:39.812Z,13.23
2022-11-19T21:19:07.684Z,11.20
2022-11-19T21:21:35.850Z,12.97
2022-11-19T21:24:03.809Z,10.67
2022-11-19T21:26:31.788Z,15.47
2022-11-19T21:29:00.814Z,12.50
2022-11-19T21:31:39.582Z,12.97
2022-11-19T21:34:09.540Z,12.70
2022-11-19T21:36:37.735Z,13.90
2022-11-19T21:39:06.912Z,14.13
2022-11-19T21:41:35.076Z,12.00
2022-11-19T21:44:03.319Z,13.30
2022-11-19T21:46:33.064Z,12.30
2022-11-19T21:49:01.392Z,14.43
2022-11-19T21:51:29.316Z,12.80
2022-11-19T21:53:57.972Z,13.27
2022-11-19T21:56:27.202Z,15.63
2022-11-19T21:58:55.127Z,13.17
2022-11-19T22:01:23.079Z,12.33
2022-11-19T22:03:52.283Z,11.53
2022-11-19T22:06:20.163Z,13.67
2022-11-19T22:08:48.064Z,12.87
2022-11-19T22:11:31.417Z,14.80
2022-11-19T22:14:01.748Z,12.90
2022-11-19T22:16:30.498Z,12.53
2022-11-19T22:18:59.779Z,11.30
2022-11-19T22:21:28.894Z,15.63
2022-11-19T22:23:56.813Z,13.87
2022-11-19T22:26:24.931Z,12.83
2022-11-19T22:28:52.830Z,11.27
2022-11-19T22:31:20.686Z,13.07
2022-11-19T22:33:51.367Z,12.67
2022-11-19T22:36:22.191Z,14.37
2022-11-19T22:38:51.084Z,12.17
2022-11-19T22:41:20.980Z,13.00
2022-11-19T22:43:49.638Z,13.23
2022-11-19T22:46:18.004Z,14.23
2022-11-19T22:48:45.964Z,13.67
2022-11-19T22:51:16.217Z,13.50
2022-11-19T22:53:45.607Z,13.37
2022-11-19T22:56:14.989Z,12.67
2022-11-19T22:58:43.073Z,15.23
2022-11-19T23:01:17.424Z,12.70
2022-11-19T23:03:45.435Z,10.07
2022-11-19T23:06:13.335Z,11.33
2022-11-19T23:08:41.266Z,12.93
2022-11-19T23:11:10.721Z,11.33
2022-11-19T23:13:39.525Z,13.70
2022-11-19T23:16:09.530Z,12.77
2022-11-19T23:18:39.435Z,12.43
2022-11-19T23:21:10.370Z,15.13
2022-11-19T23:23:38.272Z,14.77
2022-11-19T23:26:08.350Z,12.50
2022-11-19T23:28:38.623Z,13.23
2022-11-19T23:31:07.662Z,12.13
2022-11-19T23:33:35.707Z,12.67
2022-11-19T23:36:04.978Z,12.87
2022-11-19T23:38:33.439Z,12.83
2022-11-19T23:41:01.948Z,12.90
2022-11-19T23:43:30.820Z,13.97
2022-11-19T23:46:06.515Z,11.67
2022-11-19T23:48:35.106Z,11.97
2022-11-19T23:51:03.838Z,14.13
2022-11-19T23:53:31.748Z,12.70
2022-11-19T23:56:00.480Z,12.73
2022-11-19T23:58:28.858Z,14.33
